Laughlin Air Force Base
KDLF : now visible

Airfield :











YOU CAN JOIN US ON...

 
LOGIN :

Register | Disclaimer

   EN    FR    IT 

 









Legend :    VFR   Marginal VFR   IFR   Intensive IFR   Very Intensive IFR
Visi :
Ceiling :
>= 8 km
>= 3000ft
5 to 8 km
1000 to 3000 ft
1500m to 5 km
500 to 1000 ft
800 to 1500m
200 to 500 ft
< 800m
< 200 ft
Symbols :   Thunderstorms  Fog  Heavy snow  Heavy precipitations  Wind > 20 kt






- Airport Elevation : 1082 ft


KDLF - Laughlin Air Force Base

CURRENT METAR :
  • 171756Z AUTO 29005KT 10SM HZ FEW200 16/10 A3006 RMK AO2 VIS 5/8 RWY13 SLP178 T01630099 10163 20059 50001 $

EXPIRED METARs :
  • 171706Z AUTO 00000KT 10SM HZ SCT009 SCT190 13/10 A3008 RMK AO2 VIS 5/8 RWY13 SLPNO $
  • 171656Z AUTO 00000KT 10SM HZ BKN009 13/10 A3008 RMK AO2 VIS 5/8 RWY13 BKN V OVC CIG 008 RWY13 SLPNO T01290097 $
  • 171646Z AUTO 00000KT 10SM HZ OVC009 12/10 A3008 RMK AO2 VIS 5/8 RWY13 CIG 007V009 CIG 008 RWY13 SLPNO $
  • 171636Z AUTO 00000KT 10SM HZ OVC007 12/10 A3008 RMK AO2 VIS 5/8 RWY13 SLPNO $
  • 171556Z AUTO 00000KT 10SM BR OVC005 12/10 A3007 RMK AO2 VIS 5/8 RWY13 SLP182 T01180097 $

TAF TAF KDLF
Valid from the 17 at 18:00 until the 19 at 00:00 UTC


171800Z 1718/1824 30009KT 9999 BKN200 QNH3005INS
BECMG 1719/1720 32012G18KT 9999 BKN200 QNH3001INS
BECMG 1722/1723 34009KT 9999 SCT200 QNH2999INS
BECMG 1815/1816 10006KT 9999 SKC QNH2991INS TX21/1721Z TN05/1813Z



MET'MAP, your aeronautical weather chart ! - Copyright ORBIFLY December 2007 - Disclaimer

ORBIFLY MET'MAP TEAM :

Programming & Development : Alexandra Zaïnal
Concept & Development : Baudouin d'Aumeries
Co-Development & Prog : Marc-Olivier Méhu
Technical & hardware support : Manuel Goepfert

Contact : metmap@orbifly.com




SOURCES & CREDITS :

   NOAA       Earth
Advisory